Time;durP1;ratioP1;P1;durP2;ratioP2;P2;SDS_P1;SDS_P2;PMS_P1;PMS_P2;Temp;Humidity;BMP_temperature;BMP_pressure;BME280_temperature;BME280_humidity;BME280_pressure;Samples;Min_cycle;Max_cycle;Signal;HPM_P1;HPM_P2
2023/12/18 00:00:28;;;;;;;5.87;4.30;;;6.50;99.90;;;;;;4971853;28;20478;-55
2023/12/18 00:02:54;;;;;;;5.23;4.50;;;6.50;99.90;;;;;;4975203;28;20457;-56
2023/12/18 00:05:21;;;;;;;5.07;4.57;;;6.50;99.90;;;;;;4973428;28;20482;-57
2023/12/18 00:07:48;;;;;;;4.77;4.37;;;6.50;99.90;;;;;;4973257;28;20865;-57
2023/12/18 00:10:14;;;;;;;4.80;4.37;;;6.60;99.90;;;;;;4963150;28;20457;-56
2023/12/18 00:12:41;;;;;;;6.23;4.30;;;6.60;99.90;;;;;;4971901;28;20445;-56
2023/12/18 00:15:08;;;;;;;5.43;4.30;;;6.60;99.90;;;;;;4971633;28;20462;-56
2023/12/18 00:17:36;;;;;;;5.60;4.47;;;6.60;99.90;;;;;;4964171;28;20438;-56
2023/12/18 00:20:03;;;;;;;5.33;4.83;;;6.70;99.90;;;;;;4957768;28;20462;-56
2023/12/18 00:22:30;;;;;;;6.70;4.10;;;6.70;99.90;;;;;;4955342;28;20439;-56
2023/12/18 00:24:56;;;;;;;4.60;4.20;;;6.70;99.90;;;;;;4955379;28;20610;-57
2023/12/18 00:27:23;;;;;;;4.50;4.10;;;6.70;99.90;;;;;;4961466;28;20490;-57
2023/12/18 00:29:49;;;;;;;4.40;4.00;;;6.70;99.90;;;;;;4962633;28;20463;-56
2023/12/18 00:32:16;;;;;;;5.17;4.67;;;6.70;99.90;;;;;;4968374;28;20498;-56
2023/12/18 00:34:44;;;;;;;5.97;5.10;;;6.70;99.90;;;;;;4956645;28;20537;-56
2023/12/18 00:37:11;;;;;;;5.20;4.07;;;6.70;99.90;;;;;;4970675;28;20505;-56
2023/12/18 00:39:37;;;;;;;5.70;4.23;;;6.70;99.90;;;;;;4969353;28;20504;-58
2023/12/18 00:42:04;;;;;;;4.63;4.23;;;6.70;99.90;;;;;;4961892;28;20461;-56
2023/12/18 00:44:31;;;;;;;6.73;4.93;;;6.80;99.90;;;;;;4970430;28;20508;-57
2023/12/18 00:46:58;;;;;;;5.80;5.30;;;6.80;99.90;;;;;;4969468;28;20470;-57
2023/12/18 00:49:27;;;;;;;5.33;4.90;;;6.80;99.90;;;;;;4962856;28;20489;-56
2023/12/18 00:51:55;;;;;;;5.40;4.53;;;6.80;99.90;;;;;;4962708;28;20461;-57
2023/12/18 00:54:21;;;;;;;9.00;5.30;;;6.80;99.90;;;;;;4972709;28;20513;-56
2023/12/18 00:56:48;;;;;;;5.60;4.57;;;6.90;99.90;;;;;;4962348;28;20505;-56
2023/12/18 00:59:14;;;;;;;4.90;4.50;;;6.80;99.90;;;;;;4968887;28;20866;-56
2023/12/18 01:01:42;;;;;;;5.90;4.70;;;6.90;99.90;;;;;;4967153;28;20516;-56
2023/12/18 01:04:08;;;;;;;6.83;4.90;;;6.90;99.90;;;;;;4961482;28;20482;-57
2023/12/18 01:06:35;;;;;;;5.90;5.23;;;6.90;99.90;;;;;;4961466;28;21019;-56
2023/12/18 01:09:03;;;;;;;8.30;5.63;;;6.90;99.90;;;;;;4964032;28;20489;-56
2023/12/18 01:11:29;;;;;;;5.70;5.20;;;7.00;99.90;;;;;;4962878;28;20510;-56
2023/12/18 01:13:56;;;;;;;7.20;5.37;;;7.00;99.90;;;;;;4971426;28;20556;-56
2023/12/18 01:16:22;;;;;;;6.00;4.70;;;7.00;99.90;;;;;;4967815;28;20478;-57
2023/12/18 01:18:49;;;;;;;5.53;4.93;;;7.00;99.90;;;;;;4966124;28;20890;-56
2023/12/18 01:21:16;;;;;;;8.90;4.70;;;7.10;99.90;;;;;;4967635;28;20462;-56
2023/12/18 01:23:42;;;;;;;9.43;5.93;;;7.00;99.90;;;;;;4960122;28;20462;-57
2023/12/18 01:26:10;;;;;;;5.40;4.90;;;7.00;99.90;;;;;;4963876;28;20528;-56
2023/12/18 01:28:37;;;;;;;9.87;6.33;;;7.10;99.90;;;;;;4969323;28;20485;-56
2023/12/18 01:31:04;;;;;;;6.73;5.23;;;7.10;99.90;;;;;;4960598;28;20445;-56
2023/12/18 01:33:31;;;;;;;9.70;6.07;;;7.10;99.90;;;;;;4958161;28;20486;-56
2023/12/18 01:35:57;;;;;;;6.43;5.77;;;7.10;99.90;;;;;;4963981;28;20525;-56
2023/12/18 01:38:24;;;;;;;7.20;6.60;;;7.10;99.90;;;;;;4956890;28;20513;-56
2023/12/18 01:40:50;;;;;;;11.70;6.50;;;7.20;99.90;;;;;;4964798;28;20488;-57
2023/12/18 01:43:25;;;;;;;8.80;6.50;;;7.20;99.90;;;;;;4960616;28;21065;-56
2023/12/18 01:45:56;;;;;;;6.23;5.10;;;7.20;99.90;;;;;;4964773;28;20472;-57
2023/12/18 01:48:23;;;;;;;6.87;6.17;;;7.20;99.90;;;;;;4968238;28;20485;-56
2023/12/18 01:50:50;;;;;;;6.40;5.67;;;7.20;99.90;;;;;;4961400;28;20888;-57
2023/12/18 01:53:17;;;;;;;10.73;6.80;;;7.10;99.90;;;;;;4962599;28;20469;-57
2023/12/18 01:55:44;;;;;;;8.30;6.90;;;7.10;99.90;;;;;;4956946;28;20498;-56
2023/12/18 01:58:12;;;;;;;8.37;7.00;;;7.20;99.90;;;;;;4966361;28;20513;-57
2023/12/18 02:00:40;;;;;;;7.73;6.50;;;7.20;99.90;;;;;;4977032;23;20591;-53
2023/12/18 02:03:09;;;;;;;7.33;6.40;;;7.20;99.90;;;;;;4947401;28;20956;-52
2023/12/18 02:05:37;;;;;;;11.40;8.23;;;7.20;99.90;;;;;;4948924;28;20458;-52
2023/12/18 02:08:04;;;;;;;10.00;6.87;;;7.30;99.90;;;;;;4952098;28;20458;-53
2023/12/18 02:10:31;;;;;;;12.07;7.90;;;7.20;99.90;;;;;;4939175;29;20553;-51
2023/12/18 02:12:58;;;;;;;12.63;8.30;;;7.20;99.90;;;;;;4932698;29;20492;-53
2023/12/18 02:15:24;;;;;;;10.77;7.70;;;7.20;99.90;;;;;;4932525;29;20545;-52
2023/12/18 02:17:52;;;;;;;14.10;7.60;;;7.20;99.90;;;;;;4935263;29;20489;-52
2023/12/18 02:20:19;;;;;;;11.80;7.80;;;7.20;99.90;;;;;;4936186;29;20463;-53
2023/12/18 02:22:52;;;;;;;13.90;8.13;;;7.20;99.90;;;;;;4940035;29;20446;-53
2023/12/18 02:25:19;;;;;;;9.87;7.60;;;7.20;99.90;;;;;;4938998;29;20987;-51
2023/12/18 02:27:48;;;;;;;12.50;7.50;;;7.30;99.90;;;;;;4931324;29;20498;-53
2023/12/18 02:30:16;;;;;;;12.30;8.00;;;7.30;99.90;;;;;;4932572;29;20550;-53
2023/12/18 02:32:43;;;;;;;13.27;8.37;;;7.20;99.90;;;;;;4938230;29;20439;-52
2023/12/18 02:35:10;;;;;;;12.30;7.30;;;7.20;99.90;;;;;;4938509;29;20941;-53
2023/12/18 02:37:36;;;;;;;13.13;8.50;;;7.20;99.90;;;;;;4940744;29;20522;-53
2023/12/18 02:40:05;;;;;;;13.73;7.67;;;7.20;99.90;;;;;;4941091;29;20459;-53
2023/12/18 02:42:32;;;;;;;8.43;7.63;;;7.20;99.90;;;;;;4931946;29;20506;-53
2023/12/18 02:44:58;;;;;;;8.90;7.30;;;7.20;99.90;;;;;;4935352;28;20447;-53
2023/12/18 02:47:25;;;;;;;10.87;7.50;;;7.10;99.90;;;;;;4933808;29;20467;-53
2023/12/18 02:49:52;;;;;;;13.23;8.10;;;7.20;99.90;;;;;;4939971;29;20589;-53
2023/12/18 02:52:19;;;;;;;10.87;6.90;;;7.20;99.90;;;;;;4940050;29;20545;-53
2023/12/18 02:54:46;;;;;;;10.23;7.10;;;7.10;99.90;;;;;;4939730;29;20447;-52
2023/12/18 02:57:13;;;;;;;10.63;7.40;;;7.10;99.90;;;;;;4941252;29;20447;-52
2023/12/18 02:59:40;;;;;;;9.43;7.90;;;7.10;99.90;;;;;;4937741;29;20517;-52
2023/12/18 03:02:07;;;;;;;9.73;7.43;;;7.10;99.90;;;;;;4939430;29;20463;-52
2023/12/18 03:04:33;;;;;;;11.70;8.37;;;7.10;99.90;;;;;;4954498;29;20518;-57
2023/12/18 03:07:00;;;;;;;11.43;7.73;;;7.10;99.90;;;;;;4960550;29;20461;-53
2023/12/18 03:09:26;;;;;;;11.83;7.87;;;7.10;99.90;;;;;;4956313;28;20486;-52
2023/12/18 03:11:53;;;;;;;12.17;7.80;;;7.10;99.90;;;;;;4951588;29;20458;-53
2023/12/18 03:14:21;;;;;;;11.60;6.93;;;7.10;99.90;;;;;;4947008;29;20490;-53
2023/12/18 03:16:47;;;;;;;14.23;8.27;;;7.10;99.90;;;;;;4939017;29;20605;-53
2023/12/18 03:19:14;;;;;;;11.80;8.10;;;7.10;99.90;;;;;;4933641;29;20478;-53
2023/12/18 03:21:41;;;;;;;10.13;7.73;;;7.00;99.90;;;;;;4940339;29;20481;-53
2023/12/18 03:24:08;;;;;;;9.30;8.10;;;7.00;99.90;;;;;;4944341;29;20487;-52
2023/12/18 03:26:34;;;;;;;12.93;8.00;;;7.00;99.90;;;;;;4945025;29;20945;-53
2023/12/18 03:29:01;;;;;;;9.03;7.80;;;7.00;99.90;;;;;;4940432;29;20918;-52
2023/12/18 03:31:29;;;;;;;11.77;8.37;;;7.00;99.90;;;;;;4937332;29;20589;-53
2023/12/18 03:33:55;;;;;;;10.10;8.20;;;7.00;99.90;;;;;;4937974;29;20526;-53
2023/12/18 03:36:22;;;;;;;10.67;8.33;;;7.00;99.90;;;;;;4935050;29;20861;-52
2023/12/18 03:38:49;;;;;;;10.50;8.53;;;7.00;99.90;;;;;;4943397;29;20521;-52
2023/12/18 03:41:15;;;;;;;8.80;7.93;;;7.00;99.90;;;;;;4954326;29;20443;-52
2023/12/18 03:43:42;;;;;;;12.17;8.13;;;7.00;99.90;;;;;;4955211;29;20482;-52
2023/12/18 03:46:09;;;;;;;10.33;8.60;;;7.00;99.90;;;;;;4947122;29;20444;-53
2023/12/18 03:48:36;;;;;;;10.60;8.50;;;7.00;99.90;;;;;;4943815;29;20554;-52
2023/12/18 03:51:03;;;;;;;9.83;8.13;;;7.00;99.90;;;;;;4939406;29;20932;-53
2023/12/18 03:53:30;;;;;;;15.20;9.13;;;7.00;99.90;;;;;;4933824;29;20490;-55
2023/12/18 03:55:56;;;;;;;8.90;7.73;;;7.00;99.90;;;;;;4938071;29;20504;-52
2023/12/18 03:58:23;;;;;;;14.63;8.90;;;7.00;99.90;;;;;;4939482;29;20514;-53
2023/12/18 04:00:50;;;;;;;11.77;8.50;;;7.00;99.90;;;;;;4937017;29;20578;-53
2023/12/18 04:03:16;;;;;;;11.77;8.80;;;7.00;99.90;;;;;;4934570;29;20522;-53
2023/12/18 04:05:44;;;;;;;15.93;8.93;;;7.00;99.90;;;;;;4941060;28;20462;-53
2023/12/18 04:08:11;;;;;;;19.73;10.20;;;7.00;99.90;;;;;;4934641;29;20459;-52
2023/12/18 04:10:38;;;;;;;12.70;8.50;;;6.90;99.90;;;;;;4934996;29;20554;-52
2023/12/18 04:13:05;;;;;;;15.30;8.50;;;6.90;99.90;;;;;;4935229;29;20987;-53
2023/12/18 04:15:31;;;;;;;10.90;8.50;;;6.90;99.90;;;;;;4934323;29;20464;-52
2023/12/18 04:17:58;;;;;;;12.90;8.43;;;6.90;99.90;;;;;;4931312;29;20470;-53
2023/12/18 04:20:25;;;;;;;14.23;8.67;;;6.90;99.90;;;;;;4933150;29;20474;-52
2023/12/18 04:22:52;;;;;;;11.50;8.63;;;7.00;99.90;;;;;;4933799;29;20847;-53
2023/12/18 04:25:18;;;;;;;15.30;9.43;;;6.90;99.90;;;;;;4936076;29;20463;-53
2023/12/18 04:27:45;;;;;;;14.07;9.83;;;7.00;99.90;;;;;;4934342;29;20459;-52
2023/12/18 04:30:12;;;;;;;11.67;8.83;;;7.00;99.90;;;;;;4933036;29;20961;-52
2023/12/18 04:32:39;;;;;;;13.13;8.77;;;7.00;99.90;;;;;;4935156;29;20507;-53
2023/12/18 04:35:06;;;;;;;12.03;8.30;;;7.10;99.90;;;;;;4933245;29;20498;-53
2023/12/18 04:37:33;;;;;;;18.37;9.20;;;7.10;99.90;;;;;;4932598;29;20566;-53
2023/12/18 04:40:03;;;;;;;11.53;7.97;;;7.10;99.90;;;;;;4936684;29;20606;-53
2023/12/18 04:42:30;;;;;;;10.13;8.03;;;7.10;99.90;;;;;;4935093;29;20908;-52
2023/12/18 04:44:57;;;;;;;10.10;7.73;;;7.10;99.90;;;;;;4933287;29;20577;-52
2023/12/18 04:47:23;;;;;;;11.23;7.30;;;7.10;99.90;;;;;;4933021;29;20588;-53
2023/12/18 04:49:50;;;;;;;11.77;8.07;;;7.10;99.90;;;;;;4937988;29;20497;-53
2023/12/18 04:52:16;;;;;;;12.17;8.27;;;7.10;99.90;;;;;;4935104;29;20498;-53
2023/12/18 04:54:43;;;;;;;14.33;8.03;;;7.10;99.90;;;;;;4928188;29;20864;-52
2023/12/18 04:57:11;;;;;;;10.20;7.90;;;7.10;99.90;;;;;;4934586;29;20475;-52
2023/12/18 04:59:37;;;;;;;15.20;8.40;;;7.10;99.90;;;;;;4938340;29;20519;-52
2023/12/18 05:02:04;;;;;;;15.33;7.57;;;7.10;99.90;;;;;;4941085;29;20446;-53
2023/12/18 05:04:31;;;;;;;15.63;7.90;;;7.10;99.90;;;;;;4949480;29;20495;-53
2023/12/18 05:06:57;;;;;;;8.70;7.60;;;7.10;99.90;;;;;;4948473;29;20470;-54
2023/12/18 05:09:24;;;;;;;11.50;7.57;;;7.10;99.90;;;;;;4941186;29;20486;-53
2023/12/18 05:11:50;;;;;;;11.43;8.53;;;7.10;99.90;;;;;;4948317;29;20945;-55
2023/12/18 05:14:18;;;;;;;13.97;7.70;;;7.10;99.90;;;;;;4948734;29;20993;-53
2023/12/18 05:16:45;;;;;;;10.93;7.37;;;7.10;99.90;;;;;;4935397;29;20988;-52
2023/12/18 05:19:11;;;;;;;9.37;6.77;;;7.10;99.90;;;;;;4933377;29;20518;-52
2023/12/18 05:21:38;;;;;;;12.23;7.43;;;7.10;99.90;;;;;;4932411;29;20609;-53
2023/12/18 05:24:05;;;;;;;10.77;7.07;;;7.10;99.90;;;;;;4931235;29;20471;-53
2023/12/18 05:26:32;;;;;;;12.63;7.80;;;7.10;99.90;;;;;;4934841;29;20814;-53
2023/12/18 05:28:59;;;;;;;10.07;7.33;;;7.10;99.90;;;;;;4938180;29;20499;-53
2023/12/18 05:31:27;;;;;;;9.67;6.80;;;7.20;99.90;;;;;;4937199;29;20955;-52
2023/12/18 05:33:53;;;;;;;7.83;7.03;;;7.20;92.10;;;;;;4941407;29;20467;-53
2023/12/18 05:36:20;;;;;;;10.53;7.23;;;7.10;99.90;;;;;;4936178;29;20980;-52
2023/12/18 05:38:46;;;;;;;9.37;6.70;;;7.20;99.90;;;;;;4932805;29;20490;-52
2023/12/18 05:41:13;;;;;;;10.63;6.70;;;7.10;99.90;;;;;;4935117;29;20452;-52
2023/12/18 05:43:40;;;;;;;11.80;7.67;;;7.10;99.90;;;;;;4940395;29;20448;-53
2023/12/18 05:46:10;;;;;;;17.40;12.30;;;7.10;99.90;;;;;;4934265;29;20467;-52
2023/12/18 05:48:37;;;;;;;21.00;13.50;;;7.10;99.90;;;;;;4932568;29;20510;-52
2023/12/18 05:51:05;;;;;;;12.27;7.33;;;7.10;99.90;;;;;;4933727;29;20499;-52
2023/12/18 05:53:31;;;;;;;12.80;7.63;;;7.20;99.90;;;;;;4935416;29;20512;-52
2023/12/18 05:55:58;;;;;;;6.83;6.13;;;7.10;99.90;;;;;;4930889;29;20467;-53
2023/12/18 05:58:24;;;;;;;10.73;8.00;;;7.10;99.90;;;;;;4945120;29;20534;-53
2023/12/18 06:00:51;;;;;;;9.40;7.30;;;7.10;99.90;;;;;;4958147;29;20523;-52
2023/12/18 06:03:17;;;;;;;14.97;7.90;;;7.20;99.90;;;;;;4961989;29;20463;-52
2023/12/18 06:05:46;;;;;;;12.23;7.80;;;7.20;99.90;;;;;;4960156;29;20454;-54
2023/12/18 06:08:12;;;;;;;11.07;8.43;;;7.10;99.90;;;;;;4943353;29;20473;-54
2023/12/18 06:10:39;;;;;;;10.13;7.70;;;7.10;99.90;;;;;;4938246;29;20590;-53
2023/12/18 06:13:05;;;;;;;11.97;8.83;;;7.10;99.90;;;;;;4932814;29;20503;-53
2023/12/18 06:15:32;;;;;;;13.30;8.63;;;7.10;99.90;;;;;;4934978;29;20835;-53
2023/12/18 06:17:59;;;;;;;12.80;9.10;;;7.10;99.90;;;;;;4930603;29;20467;-57
2023/12/18 06:20:25;;;;;;;12.00;8.00;;;7.10;99.90;;;;;;4938526;29;20537;-57
2023/12/18 06:22:53;;;;;;;12.67;8.83;;;7.10;99.90;;;;;;4930278;29;20580;-57
2023/12/18 06:25:20;;;;;;;12.03;7.83;;;7.10;99.90;;;;;;4933200;29;20467;-57
2023/12/18 06:27:46;;;;;;;11.87;7.87;;;7.10;99.90;;;;;;4933246;29;20491;-58
2023/12/18 06:30:15;;;;;;;11.70;7.07;;;7.10;99.90;;;;;;4932625;29;20558;-58
2023/12/18 06:32:42;;;;;;;13.60;7.63;;;7.10;99.90;;;;;;4933610;29;20522;-58
2023/12/18 06:35:09;;;;;;;9.37;6.90;;;7.10;99.90;;;;;;4938414;29;20546;-56
2023/12/18 06:37:35;;;;;;;12.17;8.70;;;7.10;99.90;;;;;;4931927;28;20466;-57
2023/12/18 06:40:04;;;;;;;13.10;6.90;;;7.10;99.90;;;;;;4933823;29;20490;-56
2023/12/18 06:42:31;;;;;;;16.60;7.30;;;7.10;99.90;;;;;;4932941;29;20477;-56
2023/12/18 06:44:57;;;;;;;15.30;7.40;;;7.10;99.90;;;;;;4934283;29;20964;-56
2023/12/18 06:47:24;;;;;;;11.60;6.67;;;7.10;99.90;;;;;;4939987;29;20850;-57
2023/12/18 06:49:51;;;;;;;10.57;6.33;;;7.10;99.90;;;;;;4939546;29;21075;-57
2023/12/18 06:52:17;;;;;;;11.13;6.70;;;7.10;99.90;;;;;;4936801;29;20465;-57
2023/12/18 06:54:44;;;;;;;9.73;6.73;;;7.10;99.90;;;;;;4935550;29;20463;-58
2023/12/18 06:57:12;;;;;;;14.10;7.20;;;7.10;99.90;;;;;;4938157;29;20953;-58
2023/12/18 06:59:39;;;;;;;8.57;6.20;;;7.10;99.90;;;;;;4935150;29;20996;-57
2023/12/18 07:02:06;;;;;;;9.33;6.30;;;7.10;99.90;;;;;;4936405;29;20926;-57
2023/12/18 07:04:32;;;;;;;8.90;6.97;;;7.00;99.90;;;;;;4934206;29;20499;-57
2023/12/18 07:06:59;;;;;;;13.10;7.50;;;7.10;99.90;;;;;;4938947;29;20991;-58
2023/12/18 07:09:26;;;;;;;8.80;6.17;;;7.00;99.90;;;;;;4931923;29;20526;-57
2023/12/18 07:11:52;;;;;;;11.33;7.17;;;7.10;99.90;;;;;;4937727;29;20447;-59
2023/12/18 07:14:20;;;;;;;13.73;6.60;;;7.10;99.90;;;;;;4930643;29;20459;-57
2023/12/18 07:16:47;;;;;;;14.87;6.90;;;7.10;99.90;;;;;;4937068;29;20518;-58
2023/12/18 07:19:14;;;;;;;9.47;6.63;;;7.00;99.90;;;;;;4934107;29;21019;-58
2023/12/18 07:21:41;;;;;;;10.23;7.27;;;7.00;99.90;;;;;;4937373;29;20898;-56
2023/12/18 07:24:08;;;;;;;9.13;7.10;;;7.00;99.90;;;;;;4941618;29;20463;-59
2023/12/18 07:26:34;;;;;;;8.97;6.23;;;7.10;99.90;;;;;;4936336;29;20619;-58
2023/12/18 07:29:01;;;;;;;7.23;6.43;;;7.00;99.90;;;;;;4939805;29;20471;-58
2023/12/18 07:31:29;;;;;;;10.05;6.57;;;7.10;99.90;;;;;;4933741;29;20496;-60
2023/12/18 07:33:55;;;;;;;8.47;7.27;;;7.10;99.90;;;;;;4937938;29;20216;-60
2023/12/18 07:36:22;;;;;;;9.87;7.40;;;7.10;99.90;;;;;;4935905;29;20469;-60
2023/12/18 07:38:49;;;;;;;12.00;7.03;;;7.10;99.90;;;;;;4934809;29;20494;-60
2023/12/18 07:41:16;;;;;;;8.77;6.33;;;7.00;99.90;;;;;;4936137;29;20459;-60
2023/12/18 07:43:42;;;;;;;9.27;6.80;;;7.10;99.90;;;;;;4931164;29;20540;-60
2023/12/18 07:46:18;;;;;;;10.50;7.10;;;7.10;99.90;;;;;;4938709;29;20869;-59
2023/12/18 07:48:47;;;;;;;9.87;8.03;;;7.10;99.90;;;;;;4930242;29;20530;-59
2023/12/18 07:51:13;;;;;;;12.70;7.47;;;7.10;99.90;;;;;;4925794;29;20582;-59
2023/12/18 07:53:40;;;;;;;11.50;8.37;;;7.10;99.90;;;;;;4917807;29;21025;-59
2023/12/18 07:56:08;;;;;;;11.20;7.33;;;7.10;99.90;;;;;;4933682;29;20542;-59
2023/12/18 07:58:34;;;;;;;12.23;6.67;;;7.10;99.90;;;;;;4929886;29;20839;-60
2023/12/18 08:01:03;;;;;;;9.10;7.30;;;7.10;99.90;;;;;;4930128;28;20956;-54
2023/12/18 08:03:30;;;;;;;8.80;6.90;;;7.10;99.90;;;;;;4921323;29;20518;-53
2023/12/18 08:05:58;;;;;;;10.60;7.50;;;7.00;99.90;;;;;;4929012;29;20519;-53
2023/12/18 08:08:24;;;;;;;9.40;7.53;;;7.10;99.90;;;;;;4928180;29;20499;-53
2023/12/18 08:10:51;;;;;;;9.77;7.20;;;7.20;99.90;;;;;;4933693;29;20590;-53
2023/12/18 08:13:17;;;;;;;11.07;7.33;;;7.20;99.90;;;;;;4927516;29;20546;-54
2023/12/18 08:15:44;;;;;;;10.80;6.93;;;7.10;99.90;;;;;;4933619;29;20463;-54
2023/12/18 08:18:12;;;;;;;12.30;6.80;;;7.10;99.90;;;;;;4934653;29;20562;-53
2023/12/18 08:20:39;;;;;;;9.60;6.40;;;7.20;99.90;;;;;;4926682;29;20490;-54
2023/12/18 08:23:07;;;;;;;13.50;7.07;;;7.20;99.90;;;;;;4932263;29;20463;-54
2023/12/18 08:25:33;;;;;;;8.37;6.77;;;7.20;99.90;;;;;;4928821;29;20470;-54
2023/12/18 08:28:00;;;;;;;15.77;9.17;;;7.20;99.90;;;;;;4933276;29;20518;-54
2023/12/18 08:30:27;;;;;;;9.43;7.00;;;7.20;99.90;;;;;;4934866;29;20514;-54
2023/12/18 08:32:54;;;;;;;8.73;7.23;;;7.10;99.90;;;;;;4934363;29;20455;-53
2023/12/18 08:35:20;;;;;;;8.93;7.10;;;7.10;99.90;;;;;;4936659;29;20954;-55
2023/12/18 08:37:47;;;;;;;15.10;8.97;;;7.10;99.90;;;;;;4935934;29;20961;-55
2023/12/18 08:40:15;;;;;;;12.63;7.43;;;7.00;99.90;;;;;;4935412;29;20486;-55
2023/12/18 08:42:41;;;;;;;14.63;9.23;;;7.10;99.90;;;;;;4936233;29;20502;-55
2023/12/18 08:45:09;;;;;;;11.80;8.43;;;7.00;99.90;;;;;;4943658;29;20447;-55
2023/12/18 08:47:35;;;;;;;9.83;8.03;;;7.00;99.90;;;;;;4934710;29;21039;-53
2023/12/18 08:50:02;;;;;;;9.50;7.33;;;7.00;99.90;;;;;;4939123;29;20902;-53
2023/12/18 08:52:29;;;;;;;12.77;8.33;;;7.00;99.90;;;;;;4946176;29;20450;-53
2023/12/18 08:54:55;;;;;;;13.20;8.97;;;7.00;99.90;;;;;;4946411;29;20518;-55
2023/12/18 08:57:23;;;;;;;19.23;8.60;;;6.90;99.90;;;;;;4956773;29;20507;-54
2023/12/18 08:59:51;;;;;;;8.00;7.20;;;6.90;99.90;;;;;;4955377;29;20490;-55
2023/12/18 09:02:18;;;;;;;11.10;8.30;;;6.90;99.90;;;;;;4939141;29;20937;-55
2023/12/18 09:04:45;;;;;;;9.80;7.40;;;6.80;99.90;;;;;;4945776;29;20902;-54
2023/12/18 09:07:11;;;;;;;13.80;7.90;;;6.80;99.90;;;;;;4945820;29;20466;-54
2023/12/18 09:09:39;;;;;;;12.70;7.70;;;6.80;99.90;;;;;;4929621;29;20522;-54
2023/12/18 09:12:06;;;;;;;11.33;8.40;;;6.80;99.90;;;;;;4936554;29;20641;-53
2023/12/18 09:14:34;;;;;;;10.63;7.43;;;6.80;99.90;;;;;;4934899;29;20451;-54
2023/12/18 09:17:01;;;;;;;12.13;8.90;;;6.80;99.90;;;;;;4936695;28;20534;-54
2023/12/18 09:19:29;;;;;;;11.43;8.07;;;6.90;99.90;;;;;;4942225;29;20483;-55
2023/12/18 09:21:56;;;;;;;11.90;7.60;;;6.90;99.90;;;;;;4939700;29;20455;-54
2023/12/18 09:24:22;;;;;;;14.03;8.10;;;6.90;99.90;;;;;;4946143;29;20494;-53
2023/12/18 09:26:49;;;;;;;11.60;8.30;;;6.90;99.90;;;;;;4924673;29;21014;-55
2023/12/18 09:29:15;;;;;;;11.60;8.87;;;6.90;99.90;;;;;;4939249;29;20486;-54
2023/12/18 09:31:43;;;;;;;9.67;7.87;;;6.90;99.90;;;;;;4934644;28;20530;-54
2023/12/18 09:34:10;;;;;;;15.97;9.60;;;7.00;99.90;;;;;;4939242;29;20462;-54
2023/12/18 09:36:37;;;;;;;10.43;7.90;;;7.00;99.90;;;;;;4943447;29;20550;-54
2023/12/18 09:39:03;;;;;;;9.40;8.43;;;7.00;99.90;;;;;;4937426;29;20493;-54
2023/12/18 09:41:30;;;;;;;11.27;8.67;;;7.00;99.90;;;;;;4937093;29;20443;-54
2023/12/18 09:43:57;;;;;;;11.93;8.07;;;7.00;99.90;;;;;;4949984;28;20498;-54
2023/12/18 09:46:25;;;;;;;13.33;8.23;;;7.00;99.90;;;;;;4938165;28;20507;-56
2023/12/18 09:48:54;;;;;;;13.43;7.37;;;7.00;99.90;;;;;;4944178;29;20486;-54
2023/12/18 09:51:22;;;;;;;11.03;7.77;;;7.10;99.90;;;;;;4937167;29;21096;-54
2023/12/18 09:53:50;;;;;;;16.07;8.13;;;7.00;99.90;;;;;;4937917;29;20450;-53
2023/12/18 09:56:18;;;;;;;11.30;7.30;;;7.00;99.90;;;;;;4938475;29;20825;-53
2023/12/18 09:58:46;;;;;;;12.70;8.70;;;7.10;99.90;;;;;;4939488;29;20447;-54
2023/12/18 10:01:13;;;;;;;9.80;6.90;;;7.10;99.90;;;;;;4934478;29;20467;-54
2023/12/18 10:03:40;;;;;;;13.37;7.97;;;7.10;99.90;;;;;;4932744;29;20471;-55
2023/12/18 10:06:09;;;;;;;8.90;7.63;;;7.20;99.90;;;;;;4935843;29;20941;-54
2023/12/18 10:08:36;;;;;;;9.47;8.10;;;7.20;99.90;;;;;;4940271;29;20446;-54
2023/12/18 10:11:03;;;;;;;13.80;8.30;;;7.30;99.90;;;;;;4928724;29;21000;-55
2023/12/18 10:13:30;;;;;;;15.80;8.40;;;7.20;99.90;;;;;;4932306;29;20498;-55
2023/12/18 10:15:58;;;;;;;12.23;8.73;;;7.20;99.90;;;;;;4943263;29;20513;-54
2023/12/18 10:18:25;;;;;;;17.20;9.33;;;7.20;99.90;;;;;;4932273;29;20876;-54
2023/12/18 10:20:52;;;;;;;12.73;8.33;;;7.30;99.90;;;;;;4936666;29;20546;-54
2023/12/18 10:23:20;;;;;;;9.90;7.83;;;7.20;99.90;;;;;;4945865;29;21028;-53
2023/12/18 10:25:48;;;;;;;12.80;9.10;;;7.20;99.90;;;;;;4945909;29;20930;-53
2023/12/18 10:28:14;;;;;;;12.37;9.27;;;7.30;99.90;;;;;;4941822;29;20446;-54
2023/12/18 10:30:41;;;;;;;14.73;9.77;;;7.30;99.90;;;;;;4936622;29;20537;-54
2023/12/18 10:33:09;;;;;;;13.20;8.67;;;7.30;99.90;;;;;;4937834;29;20506;-54
2023/12/18 10:35:36;;;;;;;12.10;9.27;;;7.30;99.90;;;;;;4945475;29;20543;-54
2023/12/18 10:38:03;;;;;;;13.57;8.53;;;7.30;99.90;;;;;;4940650;29;20447;-54
2023/12/18 10:40:31;;;;;;;14.23;8.30;;;7.20;99.90;;;;;;4943328;29;20541;-54
2023/12/18 10:43:06;;;;;;;17.07;10.97;;;7.20;99.90;;;;;;4943050;29;20470;-54
2023/12/18 10:45:34;;;;;;;10.20;8.50;;;7.30;99.90;;;;;;4935623;29;20454;-53
2023/12/18 10:48:02;;;;;;;15.90;8.37;;;7.30;99.90;;;;;;4934249;29;20463;-54
2023/12/18 10:50:30;;;;;;;9.93;8.30;;;7.30;99.90;;;;;;4943167;29;20486;-54
2023/12/18 10:52:59;;;;;;;14.23;8.80;;;7.30;99.90;;;;;;4935256;29;20534;-54
2023/12/18 10:55:27;;;;;;;12.23;7.47;;;7.30;99.90;;;;;;4934908;28;20465;-54
2023/12/18 10:57:58;;;;;;;13.63;9.57;;;7.30;99.90;;;;;;4937942;29;20470;-54
2023/12/18 11:00:26;;;;;;;9.63;8.57;;;7.30;99.90;;;;;;4935090;29;20497;-54
2023/12/18 11:02:54;;;;;;;11.40;8.67;;;7.30;99.90;;;;;;4933928;29;20535;-54
2023/12/18 11:05:21;;;;;;;16.93;8.47;;;7.30;99.90;;;;;;4928888;29;20498;-54
2023/12/18 11:07:50;;;;;;;13.53;9.47;;;7.30;99.90;;;;;;4930421;29;20530;-54
2023/12/18 11:10:17;;;;;;;12.17;8.40;;;7.30;99.90;;;;;;4925593;29;20578;-54
2023/12/18 11:12:44;;;;;;;14.83;8.97;;;7.30;99.90;;;;;;4928217;29;20534;-54
2023/12/18 11:15:20;;;;;;;13.37;8.40;;;7.30;99.90;;;;;;4930669;29;20502;-54
2023/12/18 11:17:56;;;;;;;11.77;8.17;;;7.30;99.90;;;;;;4934638;29;20594;-54
2023/12/18 11:20:27;;;;;;;11.07;8.33;;;7.30;99.90;;;;;;4930247;29;20491;-59
2023/12/18 11:22:56;;;;;;;16.10;8.53;;;7.20;99.90;;;;;;4933271;29;20467;-59
2023/12/18 11:25:27;;;;;;;12.20;8.60;;;7.20;99.90;;;;;;4929661;29;20997;-57
2023/12/18 11:27:54;;;;;;;13.33;8.47;;;7.30;99.90;;;;;;4933114;28;20467;-60
2023/12/18 11:30:29;;;;;;;10.00;8.40;;;7.30;99.90;;;;;;4931835;28;20534;-58
2023/12/18 11:32:57;;;;;;;13.23;9.87;;;7.20;99.90;;;;;;4935956;29;20518;-60
2023/12/18 11:35:28;;;;;;;11.70;9.67;;;7.20;99.90;;;;;;4924663;28;20549;-59
2023/12/18 11:37:59;;;;;;;14.00;8.67;;;7.20;99.90;;;;;;4939208;29;20847;-58
2023/12/18 11:40:41;;;;;;;13.63;8.57;;;7.20;99.90;;;;;;4928956;29;20510;-60
2023/12/18 11:43:09;;;;;;;13.67;9.80;;;7.20;99.90;;;;;;4929101;29;20491;-59
2023/12/18 11:45:41;;;;;;;11.90;8.47;;;7.20;99.90;;;;;;4927925;29;20495;-59
2023/12/18 11:48:10;;;;;;;12.70;8.93;;;7.20;99.90;;;;;;4937725;29;20464;-58
2023/12/18 11:50:37;;;;;;;11.93;8.80;;;7.20;99.90;;;;;;4928004;29;20487;-59
2023/12/18 11:53:07;;;;;;;12.20;8.63;;;7.20;99.90;;;;;;4927198;29;20483;-60
2023/12/18 11:55:45;;;;;;;14.43;9.50;;;7.30;99.90;;;;;;4928634;29;20868;-59
2023/12/18 11:58:12;;;;;;;10.70;9.60;;;7.30;99.90;;;;;;4927198;29;20809;-60
2023/12/18 12:00:40;;;;;;;12.47;9.40;;;7.30;99.90;;;;;;4930756;29;20522;-59
2023/12/18 12:03:08;;;;;;;11.90;8.43;;;7.30;99.90;;;;;;4935924;29;20995;-58
2023/12/18 12:05:37;;;;;;;10.43;8.77;;;7.30;99.90;;;;;;4934571;29;20467;-59
2023/12/18 12:08:04;;;;;;;14.33;9.10;;;7.30;99.90;;;;;;4928977;29;20575;-58
2023/12/18 12:10:31;;;;;;;15.33;9.20;;;7.20;99.90;;;;;;4930019;29;20482;-59
2023/12/18 12:12:58;;;;;;;13.20;9.30;;;7.20;99.90;;;;;;4931846;29;20482;-59
2023/12/18 12:15:25;;;;;;;15.10;10.10;;;7.20;99.90;;;;;;4926155;29;20467;-58
2023/12/18 12:18:02;;;;;;;13.90;8.53;;;7.20;99.90;;;;;;4932405;29;20868;-60
2023/12/18 12:20:28;;;;;;;12.57;9.10;;;7.20;99.90;;;;;;4928392;29;20569;-59
2023/12/18 12:22:55;;;;;;;16.33;9.17;;;7.20;99.90;;;;;;4931787;29;21660;-60
2023/12/18 12:25:21;;;;;;;9.80;8.53;;;7.20;99.90;;;;;;4929495;29;20570;-60
2023/12/18 12:27:48;;;;;;;14.67;9.00;;;7.20;99.90;;;;;;4928637;29;20505;-58
2023/12/18 12:30:15;;;;;;;11.67;9.87;;;7.20;99.90;;;;;;4939462;29;20534;-58
2023/12/18 12:32:41;;;;;;;10.37;9.10;;;7.20;99.90;;;;;;4931411;29;20491;-60
2023/12/18 12:35:11;;;;;;;11.50;8.93;;;7.20;99.90;;;;;;4929891;29;20495;-59
2023/12/18 12:37:37;;;;;;;11.17;8.07;;;7.20;99.90;;;;;;4926835;29;20474;-59
2023/12/18 12:40:06;;;;;;;12.83;9.10;;;7.20;99.90;;;;;;4931043;29;20510;-58
2023/12/18 12:42:35;;;;;;;15.40;11.93;;;7.20;99.90;;;;;;4934325;29;20459;-59
2023/12/18 12:45:01;;;;;;;13.83;9.40;;;7.20;99.90;;;;;;4929466;29;20475;-59
2023/12/18 12:47:28;;;;;;;15.13;9.13;;;7.20;99.90;;;;;;4925480;29;20522;-59
2023/12/18 12:49:55;;;;;;;10.60;9.00;;;7.20;99.90;;;;;;4940867;29;20486;-60